sensor_id;sensor_type;location;lat;lon;timestamp;P1;durP1;ratioP1;P2;durP2;ratioP2
46487;SDS011;32202;48.780;9.204;2022-11-14T00:00:53;542.75;;;270.77;;
46487;SDS011;32202;48.780;9.204;2022-11-14T00:03:19;794.03;;;412.55;;
46487;SDS011;32202;48.780;9.204;2022-11-14T00:05:45;757.33;;;397.25;;
46487;SDS011;32202;48.780;9.204;2022-11-14T00:08:21;983.58;;;517.85;;
46487;SDS011;32202;48.780;9.204;2022-11-14T00:10:49;453.23;;;199.30;;
46487;SDS011;32202;48.780;9.204;2022-11-14T00:13:15;243.57;;;107.00;;
46487;SDS011;32202;48.780;9.204;2022-11-14T00:15:42;86.82;;;40.42;;
46487;SDS011;32202;48.780;9.204;2022-11-14T00:18:08;303.63;;;128.85;;
46487;SDS011;32202;48.780;9.204;2022-11-14T00:20:34;194.90;;;83.85;;
46487;SDS011;32202;48.780;9.204;2022-11-14T00:23:00;22.52;;;13.00;;
46487;SDS011;32202;48.780;9.204;2022-11-14T00:25:25;18.27;;;11.45;;
46487;SDS011;32202;48.780;9.204;2022-11-14T00:27:51;16.95;;;11.02;;
46487;SDS011;32202;48.780;9.204;2022-11-14T00:30:17;17.88;;;10.70;;
46487;SDS011;32202;48.780;9.204;2022-11-14T00:32:42;17.98;;;10.02;;
46487;SDS011;32202;48.780;9.204;2022-11-14T00:35:08;19.20;;;11.23;;
46487;SDS011;32202;48.780;9.204;2022-11-14T00:37:34;17.00;;;9.95;;
46487;SDS011;32202;48.780;9.204;2022-11-14T00:39:59;15.05;;;9.75;;
46487;SDS011;32202;48.780;9.204;2022-11-14T00:42:25;14.77;;;9.38;;
46487;SDS011;32202;48.780;9.204;2022-11-14T00:44:51;16.35;;;10.35;;
46487;SDS011;32202;48.780;9.204;2022-11-14T00:47:16;15.55;;;9.60;;
46487;SDS011;32202;48.780;9.204;2022-11-14T00:49:42;15.13;;;9.40;;
46487;SDS011;32202;48.780;9.204;2022-11-14T00:52:07;16.55;;;10.50;;
46487;SDS011;32202;48.780;9.204;2022-11-14T00:54:34;17.00;;;10.20;;
46487;SDS011;32202;48.780;9.204;2022-11-14T00:56:59;16.75;;;9.80;;
46487;SDS011;32202;48.780;9.204;2022-11-14T00:59:25;18.35;;;10.63;;
46487;SDS011;32202;48.780;9.204;2022-11-14T01:01:51;16.08;;;10.73;;
46487;SDS011;32202;48.780;9.204;2022-11-14T01:04:16;18.80;;;10.82;;
46487;SDS011;32202;48.780;9.204;2022-11-14T01:06:42;19.63;;;10.98;;
46487;SDS011;32202;48.780;9.204;2022-11-14T01:09:07;16.77;;;10.63;;
46487;SDS011;32202;48.780;9.204;2022-11-14T01:11:33;16.63;;;10.10;;
46487;SDS011;32202;48.780;9.204;2022-11-14T01:13:59;15.45;;;10.20;;
46487;SDS011;32202;48.780;9.204;2022-11-14T01:16:24;18.60;;;10.55;;
46487;SDS011;32202;48.780;9.204;2022-11-14T01:18:50;16.08;;;10.23;;
46487;SDS011;32202;48.780;9.204;2022-11-14T01:21:15;15.45;;;9.82;;
46487;SDS011;32202;48.780;9.204;2022-11-14T01:23:41;322.92;;;133.35;;
46487;SDS011;32202;48.780;9.204;2022-11-14T01:26:11;435.10;;;192.05;;
46487;SDS011;32202;48.780;9.204;2022-11-14T01:28:37;642.58;;;314.52;;
46487;SDS011;32202;48.780;9.204;2022-11-14T01:31:11;244.73;;;101.63;;
46487;SDS011;32202;48.780;9.204;2022-11-14T01:33:42;545.30;;;271.38;;
46487;SDS011;32202;48.780;9.204;2022-11-14T01:36:08;61.15;;;29.35;;
46487;SDS011;32202;48.780;9.204;2022-11-14T01:38:35;14.52;;;9.40;;
46487;SDS011;32202;48.780;9.204;2022-11-14T01:41:02;15.00;;;9.50;;
46487;SDS011;32202;48.780;9.204;2022-11-14T01:43:30;17.42;;;9.63;;
46487;SDS011;32202;48.780;9.204;2022-11-14T01:46:09;17.77;;;10.95;;
46487;SDS011;32202;48.780;9.204;2022-11-14T01:49:02;16.92;;;9.48;;
46487;SDS011;32202;48.780;9.204;2022-11-14T01:51:42;17.13;;;9.90;;
46487;SDS011;32202;48.780;9.204;2022-11-14T01:54:17;18.10;;;10.88;;
46487;SDS011;32202;48.780;9.204;2022-11-14T01:57:00;18.48;;;10.85;;
46487;SDS011;32202;48.780;9.204;2022-11-14T01:59:28;18.73;;;11.10;;
46487;SDS011;32202;48.780;9.204;2022-11-14T02:01:58;17.65;;;10.98;;
46487;SDS011;32202;48.780;9.204;2022-11-14T02:04:36;17.58;;;9.90;;
46487;SDS011;32202;48.780;9.204;2022-11-14T02:07:05;16.73;;;10.27;;
46487;SDS011;32202;48.780;9.204;2022-11-14T02:09:34;17.85;;;11.00;;
46487;SDS011;32202;48.780;9.204;2022-11-14T02:12:04;16.15;;;10.30;;
46487;SDS011;32202;48.780;9.204;2022-11-14T02:14:32;16.33;;;9.63;;
46487;SDS011;32202;48.780;9.204;2022-11-14T02:16:59;15.60;;;9.65;;
46487;SDS011;32202;48.780;9.204;2022-11-14T02:19:24;15.30;;;9.35;;
46487;SDS011;32202;48.780;9.204;2022-11-14T02:22:03;20.42;;;10.82;;
46487;SDS011;32202;48.780;9.204;2022-11-14T02:24:29;16.33;;;9.82;;
46487;SDS011;32202;48.780;9.204;2022-11-14T02:26:54;18.45;;;10.38;;
46487;SDS011;32202;48.780;9.204;2022-11-14T02:29:20;15.60;;;10.45;;
46487;SDS011;32202;48.780;9.204;2022-11-14T02:31:45;19.90;;;11.13;;
46487;SDS011;32202;48.780;9.204;2022-11-14T02:34:11;17.95;;;10.25;;
46487;SDS011;32202;48.780;9.204;2022-11-14T02:36:36;17.52;;;10.65;;
46487;SDS011;32202;48.780;9.204;2022-11-14T02:39:02;16.45;;;9.98;;
46487;SDS011;32202;48.780;9.204;2022-11-14T02:41:28;15.45;;;9.52;;
46487;SDS011;32202;48.780;9.204;2022-11-14T02:43:53;17.02;;;9.95;;
46487;SDS011;32202;48.780;9.204;2022-11-14T02:46:19;16.88;;;9.73;;
46487;SDS011;32202;48.780;9.204;2022-11-14T02:48:44;16.67;;;10.13;;
46487;SDS011;32202;48.780;9.204;2022-11-14T02:51:10;17.00;;;9.93;;
46487;SDS011;32202;48.780;9.204;2022-11-14T02:53:35;16.40;;;10.15;;
46487;SDS011;32202;48.780;9.204;2022-11-14T02:56:01;17.33;;;10.85;;
46487;SDS011;32202;48.780;9.204;2022-11-14T02:58:26;18.08;;;10.68;;
46487;SDS011;32202;48.780;9.204;2022-11-14T03:00:52;18.33;;;10.65;;
46487;SDS011;32202;48.780;9.204;2022-11-14T03:03:18;17.73;;;10.57;;
46487;SDS011;32202;48.780;9.204;2022-11-14T03:05:43;16.13;;;9.52;;
46487;SDS011;32202;48.780;9.204;2022-11-14T03:08:09;16.02;;;9.95;;
46487;SDS011;32202;48.780;9.204;2022-11-14T03:10:34;17.95;;;10.20;;
46487;SDS011;32202;48.780;9.204;2022-11-14T03:13:00;15.82;;;9.80;;
46487;SDS011;32202;48.780;9.204;2022-11-14T03:15:25;17.98;;;10.60;;
46487;SDS011;32202;48.780;9.204;2022-11-14T03:17:51;17.23;;;10.13;;
46487;SDS011;32202;48.780;9.204;2022-11-14T03:20:17;18.75;;;11.43;;
46487;SDS011;32202;48.780;9.204;2022-11-14T03:22:42;15.68;;;10.15;;
46487;SDS011;32202;48.780;9.204;2022-11-14T03:25:08;17.98;;;11.27;;
46487;SDS011;32202;48.780;9.204;2022-11-14T03:27:33;15.68;;;9.85;;
46487;SDS011;32202;48.780;9.204;2022-11-14T03:29:59;15.13;;;9.38;;
46487;SDS011;32202;48.780;9.204;2022-11-14T03:32:24;14.88;;;10.10;;
46487;SDS011;32202;48.780;9.204;2022-11-14T03:34:50;16.33;;;9.95;;
46487;SDS011;32202;48.780;9.204;2022-11-14T03:37:15;19.60;;;12.05;;
46487;SDS011;32202;48.780;9.204;2022-11-14T03:39:41;15.93;;;9.68;;
46487;SDS011;32202;48.780;9.204;2022-11-14T03:42:07;17.30;;;10.70;;
46487;SDS011;32202;48.780;9.204;2022-11-14T03:44:33;17.33;;;10.07;;
46487;SDS011;32202;48.780;9.204;2022-11-14T03:46:59;13.65;;;9.20;;
46487;SDS011;32202;48.780;9.204;2022-11-14T03:49:24;17.30;;;10.23;;
46487;SDS011;32202;48.780;9.204;2022-11-14T03:51:50;16.45;;;10.38;;
46487;SDS011;32202;48.780;9.204;2022-11-14T03:54:16;16.27;;;10.02;;
46487;SDS011;32202;48.780;9.204;2022-11-14T03:56:41;17.23;;;10.38;;
46487;SDS011;32202;48.780;9.204;2022-11-14T03:59:07;16.80;;;10.35;;
46487;SDS011;32202;48.780;9.204;2022-11-14T04:01:32;16.15;;;9.45;;
46487;SDS011;32202;48.780;9.204;2022-11-14T04:03:58;21.40;;;11.43;;
46487;SDS011;32202;48.780;9.204;2022-11-14T04:06:23;16.63;;;10.13;;
46487;SDS011;32202;48.780;9.204;2022-11-14T04:08:49;16.00;;;10.20;;
46487;SDS011;32202;48.780;9.204;2022-11-14T04:11:15;16.30;;;9.98;;
46487;SDS011;32202;48.780;9.204;2022-11-14T04:13:41;15.18;;;9.27;;
46487;SDS011;32202;48.780;9.204;2022-11-14T04:16:07;18.20;;;10.85;;
46487;SDS011;32202;48.780;9.204;2022-11-14T04:18:32;26.40;;;15.15;;
46487;SDS011;32202;48.780;9.204;2022-11-14T04:20:58;23.17;;;14.38;;
46487;SDS011;32202;48.780;9.204;2022-11-14T04:23:23;21.55;;;12.18;;
46487;SDS011;32202;48.780;9.204;2022-11-14T04:25:49;20.30;;;12.55;;
46487;SDS011;32202;48.780;9.204;2022-11-14T04:28:15;20.95;;;12.57;;
46487;SDS011;32202;48.780;9.204;2022-11-14T04:30:40;22.83;;;12.55;;
46487;SDS011;32202;48.780;9.204;2022-11-14T04:33:06;18.67;;;12.38;;
46487;SDS011;32202;48.780;9.204;2022-11-14T04:35:32;24.98;;;14.25;;
46487;SDS011;32202;48.780;9.204;2022-11-14T04:37:57;23.50;;;14.13;;
46487;SDS011;32202;48.780;9.204;2022-11-14T04:40:23;19.30;;;12.45;;
46487;SDS011;32202;48.780;9.204;2022-11-14T04:42:48;20.90;;;12.73;;
46487;SDS011;32202;48.780;9.204;2022-11-14T04:45:14;24.30;;;15.68;;
46487;SDS011;32202;48.780;9.204;2022-11-14T04:47:40;22.33;;;14.32;;
46487;SDS011;32202;48.780;9.204;2022-11-14T04:50:06;24.88;;;15.55;;
46487;SDS011;32202;48.780;9.204;2022-11-14T04:52:32;21.05;;;12.38;;
46487;SDS011;32202;48.780;9.204;2022-11-14T04:54:57;22.08;;;12.43;;
46487;SDS011;32202;48.780;9.204;2022-11-14T04:57:23;22.42;;;13.18;;
46487;SDS011;32202;48.780;9.204;2022-11-14T04:59:49;21.15;;;12.48;;
46487;SDS011;32202;48.780;9.204;2022-11-14T05:02:14;21.17;;;12.73;;
46487;SDS011;32202;48.780;9.204;2022-11-14T05:04:40;22.17;;;13.15;;
46487;SDS011;32202;48.780;9.204;2022-11-14T05:07:06;20.45;;;13.02;;
46487;SDS011;32202;48.780;9.204;2022-11-14T05:09:31;21.33;;;13.65;;
46487;SDS011;32202;48.780;9.204;2022-11-14T05:11:57;23.55;;;13.68;;
46487;SDS011;32202;48.780;9.204;2022-11-14T05:14:22;18.48;;;12.18;;
46487;SDS011;32202;48.780;9.204;2022-11-14T05:16:48;21.58;;;12.63;;
46487;SDS011;32202;48.780;9.204;2022-11-14T05:19:13;18.98;;;11.98;;
46487;SDS011;32202;48.780;9.204;2022-11-14T05:21:39;18.80;;;11.98;;
46487;SDS011;32202;48.780;9.204;2022-11-14T05:24:05;19.42;;;12.80;;
46487;SDS011;32202;48.780;9.204;2022-11-14T05:26:30;20.05;;;12.57;;
46487;SDS011;32202;48.780;9.204;2022-11-14T05:28:56;18.83;;;12.18;;
46487;SDS011;32202;48.780;9.204;2022-11-14T05:31:21;21.60;;;13.85;;
46487;SDS011;32202;48.780;9.204;2022-11-14T05:33:47;29.83;;;16.85;;
46487;SDS011;32202;48.780;9.204;2022-11-14T05:36:13;23.10;;;13.15;;
46487;SDS011;32202;48.780;9.204;2022-11-14T05:38:40;18.63;;;12.30;;
46487;SDS011;32202;48.780;9.204;2022-11-14T05:41:06;20.60;;;12.52;;
46487;SDS011;32202;48.780;9.204;2022-11-14T05:43:33;23.85;;;14.40;;
46487;SDS011;32202;48.780;9.204;2022-11-14T05:45:59;20.60;;;12.23;;
46487;SDS011;32202;48.780;9.204;2022-11-14T05:48:26;20.88;;;13.07;;
46487;SDS011;32202;48.780;9.204;2022-11-14T05:50:55;19.50;;;12.40;;
46487;SDS011;32202;48.780;9.204;2022-11-14T05:53:22;22.08;;;13.85;;
46487;SDS011;32202;48.780;9.204;2022-11-14T05:55:47;20.23;;;12.00;;
46487;SDS011;32202;48.780;9.204;2022-11-14T05:58:13;19.75;;;12.13;;
46487;SDS011;32202;48.780;9.204;2022-11-14T06:00:39;21.23;;;12.63;;
46487;SDS011;32202;48.780;9.204;2022-11-14T06:03:04;20.50;;;12.00;;
46487;SDS011;32202;48.780;9.204;2022-11-14T06:05:30;18.80;;;11.70;;
46487;SDS011;32202;48.780;9.204;2022-11-14T06:07:56;17.98;;;11.38;;
46487;SDS011;32202;48.780;9.204;2022-11-14T06:10:23;16.10;;;10.60;;
46487;SDS011;32202;48.780;9.204;2022-11-14T06:12:49;19.15;;;12.30;;
46487;SDS011;32202;48.780;9.204;2022-11-14T06:15:14;19.55;;;12.38;;
46487;SDS011;32202;48.780;9.204;2022-11-14T06:17:40;20.05;;;12.20;;
46487;SDS011;32202;48.780;9.204;2022-11-14T06:20:06;17.80;;;11.02;;
46487;SDS011;32202;48.780;9.204;2022-11-14T06:22:32;18.20;;;10.82;;
46487;SDS011;32202;48.780;9.204;2022-11-14T06:24:59;17.63;;;11.77;;
46487;SDS011;32202;48.780;9.204;2022-11-14T06:27:28;23.02;;;14.30;;
46487;SDS011;32202;48.780;9.204;2022-11-14T06:29:53;17.98;;;11.70;;
46487;SDS011;32202;48.780;9.204;2022-11-14T06:32:19;20.23;;;11.63;;
46487;SDS011;32202;48.780;9.204;2022-11-14T06:34:44;18.30;;;11.38;;
46487;SDS011;32202;48.780;9.204;2022-11-14T06:37:10;16.55;;;10.23;;
46487;SDS011;32202;48.780;9.204;2022-11-14T06:39:36;17.35;;;10.75;;
46487;SDS011;32202;48.780;9.204;2022-11-14T06:42:01;18.90;;;11.02;;
46487;SDS011;32202;48.780;9.204;2022-11-14T06:44:27;16.27;;;10.95;;
46487;SDS011;32202;48.780;9.204;2022-11-14T06:46:52;14.50;;;9.80;;
46487;SDS011;32202;48.780;9.204;2022-11-14T06:49:18;26.50;;;15.77;;
46487;SDS011;32202;48.780;9.204;2022-11-14T06:51:44;28.27;;;15.30;;
46487;SDS011;32202;48.780;9.204;2022-11-14T06:54:10;19.70;;;10.82;;
46487;SDS011;32202;48.780;9.204;2022-11-14T06:56:36;18.92;;;11.38;;
46487;SDS011;32202;48.780;9.204;2022-11-14T06:59:02;17.25;;;10.00;;
46487;SDS011;32202;48.780;9.204;2022-11-14T07:01:28;16.85;;;10.32;;
46487;SDS011;32202;48.780;9.204;2022-11-14T07:03:54;18.23;;;10.60;;
46487;SDS011;32202;48.780;9.204;2022-11-14T07:06:23;17.33;;;9.60;;
46487;SDS011;32202;48.780;9.204;2022-11-14T07:08:50;16.30;;;10.25;;
46487;SDS011;32202;48.780;9.204;2022-11-14T07:11:18;14.35;;;10.20;;
46487;SDS011;32202;48.780;9.204;2022-11-14T07:16:18;16.90;;;11.13;;
46487;SDS011;32202;48.780;9.204;2022-11-14T07:18:45;13.90;;;9.60;;
46487;SDS011;32202;48.780;9.204;2022-11-14T07:21:10;18.27;;;10.07;;
46487;SDS011;32202;48.780;9.204;2022-11-14T07:23:37;16.13;;;10.27;;
46487;SDS011;32202;48.780;9.204;2022-11-14T07:26:04;15.25;;;10.07;;
46487;SDS011;32202;48.780;9.204;2022-11-14T07:28:34;14.82;;;9.73;;
46487;SDS011;32202;48.780;9.204;2022-11-14T07:31:02;15.38;;;9.23;;
46487;SDS011;32202;48.780;9.204;2022-11-14T07:33:28;17.65;;;10.85;;
46487;SDS011;32202;48.780;9.204;2022-11-14T07:35:55;16.50;;;9.65;;
46487;SDS011;32202;48.780;9.204;2022-11-14T07:38:20;15.52;;;9.50;;
46487;SDS011;32202;48.780;9.204;2022-11-14T07:40:56;17.95;;;12.05;;
46487;SDS011;32202;48.780;9.204;2022-11-14T07:43:26;19.77;;;11.93;;
46487;SDS011;32202;48.780;9.204;2022-11-14T07:45:52;17.27;;;10.32;;
46487;SDS011;32202;48.780;9.204;2022-11-14T07:48:18;22.15;;;13.88;;
46487;SDS011;32202;48.780;9.204;2022-11-14T07:50:45;17.25;;;11.48;;
46487;SDS011;32202;48.780;9.204;2022-11-14T07:53:11;16.58;;;11.07;;
46487;SDS011;32202;48.780;9.204;2022-11-14T07:55:37;15.63;;;9.07;;
46487;SDS011;32202;48.780;9.204;2022-11-14T07:58:03;17.05;;;10.23;;
46487;SDS011;32202;48.780;9.204;2022-11-14T08:00:29;14.90;;;9.48;;
46487;SDS011;32202;48.780;9.204;2022-11-14T08:02:55;16.30;;;9.38;;
46487;SDS011;32202;48.780;9.204;2022-11-14T08:05:21;17.67;;;9.90;;
46487;SDS011;32202;48.780;9.204;2022-11-14T08:07:50;14.95;;;9.73;;
46487;SDS011;32202;48.780;9.204;2022-11-14T08:10:16;14.13;;;10.13;;
46487;SDS011;32202;48.780;9.204;2022-11-14T08:12:43;19.90;;;12.45;;
46487;SDS011;32202;48.780;9.204;2022-11-14T08:15:13;15.35;;;9.70;;
46487;SDS011;32202;48.780;9.204;2022-11-14T08:17:39;15.98;;;10.00;;
46487;SDS011;32202;48.780;9.204;2022-11-14T08:20:05;18.15;;;8.73;;
46487;SDS011;32202;48.780;9.204;2022-11-14T08:22:32;14.48;;;8.85;;
46487;SDS011;32202;48.780;9.204;2022-11-14T08:24:58;12.85;;;7.55;;
46487;SDS011;32202;48.780;9.204;2022-11-14T08:27:24;9.82;;;5.35;;
46487;SDS011;32202;48.780;9.204;2022-11-14T08:29:49;10.77;;;5.07;;
46487;SDS011;32202;48.780;9.204;2022-11-14T08:32:16;9.15;;;4.40;;
46487;SDS011;32202;48.780;9.204;2022-11-14T08:34:42;7.18;;;3.97;;
46487;SDS011;32202;48.780;9.204;2022-11-14T08:37:08;5.40;;;3.10;;
46487;SDS011;32202;48.780;9.204;2022-11-14T08:39:33;7.57;;;4.07;;
46487;SDS011;32202;48.780;9.204;2022-11-14T08:41:59;7.07;;;3.75;;
46487;SDS011;32202;48.780;9.204;2022-11-14T08:44:24;6.82;;;3.50;;
46487;SDS011;32202;48.780;9.204;2022-11-14T08:46:50;6.78;;;3.33;;
46487;SDS011;32202;48.780;9.204;2022-11-14T08:49:16;5.82;;;3.10;;
46487;SDS011;32202;48.780;9.204;2022-11-14T08:51:41;5.15;;;3.13;;
46487;SDS011;32202;48.780;9.204;2022-11-14T08:54:07;3.75;;;2.47;;
46487;SDS011;32202;48.780;9.204;2022-11-14T08:56:32;5.30;;;2.53;;
46487;SDS011;32202;48.780;9.204;2022-11-14T08:58:58;8.25;;;2.75;;
46487;SDS011;32202;48.780;9.204;2022-11-14T09:01:26;4.07;;;2.35;;
46487;SDS011;32202;48.780;9.204;2022-11-14T09:03:52;4.00;;;2.38;;
46487;SDS011;32202;48.780;9.204;2022-11-14T09:06:17;2.83;;;1.98;;
46487;SDS011;32202;48.780;9.204;2022-11-14T09:08:43;5.78;;;2.40;;
46487;SDS011;32202;48.780;9.204;2022-11-14T09:11:08;2.28;;;1.70;;
46487;SDS011;32202;48.780;9.204;2022-11-14T09:13:34;4.57;;;1.80;;
46487;SDS011;32202;48.780;9.204;2022-11-14T09:16:00;3.90;;;2.00;;
46487;SDS011;32202;48.780;9.204;2022-11-14T09:18:26;3.25;;;1.50;;
46487;SDS011;32202;48.780;9.204;2022-11-14T09:20:52;3.95;;;1.80;;
46487;SDS011;32202;48.780;9.204;2022-11-14T09:23:17;3.58;;;2.30;;
46487;SDS011;32202;48.780;9.204;2022-11-14T09:25:43;7.20;;;3.00;;
46487;SDS011;32202;48.780;9.204;2022-11-14T09:28:08;6.30;;;2.67;;
46487;SDS011;32202;48.780;9.204;2022-11-14T09:30:34;5.53;;;2.97;;
46487;SDS011;32202;48.780;9.204;2022-11-14T09:33:01;4.55;;;2.55;;
46487;SDS011;32202;48.780;9.204;2022-11-14T09:35:29;5.45;;;3.08;;
46487;SDS011;32202;48.780;9.204;2022-11-14T09:37:59;6.28;;;2.65;;
46487;SDS011;32202;48.780;9.204;2022-11-14T09:43:04;3.58;;;2.05;;
46487;SDS011;32202;48.780;9.204;2022-11-14T09:45:54;5.95;;;2.10;;
46487;SDS011;32202;48.780;9.204;2022-11-14T09:48:21;4.93;;;2.15;;
46487;SDS011;32202;48.780;9.204;2022-11-14T09:53:39;3.88;;;2.47;;
46487;SDS011;32202;48.780;9.204;2022-11-14T09:56:11;2.90;;;2.15;;
46487;SDS011;32202;48.780;9.204;2022-11-14T09:58:46;4.05;;;2.15;;
46487;SDS011;32202;48.780;9.204;2022-11-14T10:03:58;6.13;;;2.97;;
46487;SDS011;32202;48.780;9.204;2022-11-14T10:09:32;4.63;;;2.60;;
46487;SDS011;32202;48.780;9.204;2022-11-14T10:12:21;5.07;;;2.90;;
46487;SDS011;32202;48.780;9.204;2022-11-14T10:21:05;4.20;;;2.30;;
46487;SDS011;32202;48.780;9.204;2022-11-14T10:29:14;5.43;;;2.95;;
46487;SDS011;32202;48.780;9.204;2022-11-14T10:31:53;3.67;;;2.45;;
46487;SDS011;32202;48.780;9.204;2022-11-14T10:35:01;5.10;;;2.90;;
46487;SDS011;32202;48.780;9.204;2022-11-14T10:40:22;4.80;;;2.60;;
46487;SDS011;32202;48.780;9.204;2022-11-14T10:46:15;7.32;;;3.40;;
46487;SDS011;32202;48.780;9.204;2022-11-14T10:48:45;4.05;;;2.28;;
46487;SDS011;32202;48.780;9.204;2022-11-14T10:59:19;4.05;;;2.20;;
46487;SDS011;32202;48.780;9.204;2022-11-14T11:01:55;4.35;;;2.13;;
46487;SDS011;32202;48.780;9.204;2022-11-14T11:04:24;3.00;;;2.20;;
46487;SDS011;32202;48.780;9.204;2022-11-14T11:06:50;3.83;;;2.78;;
46487;SDS011;32202;48.780;9.204;2022-11-14T11:09:22;5.38;;;2.63;;
46487;SDS011;32202;48.780;9.204;2022-11-14T11:12:13;3.05;;;2.03;;
46487;SDS011;32202;48.780;9.204;2022-11-14T11:14:43;3.17;;;2.20;;
46487;SDS011;32202;48.780;9.204;2022-11-14T11:19:36;2.70;;;1.70;;
46487;SDS011;32202;48.780;9.204;2022-11-14T11:22:03;2.85;;;2.00;;
46487;SDS011;32202;48.780;9.204;2022-11-14T11:24:30;5.10;;;2.05;;
46487;SDS011;32202;48.780;9.204;2022-11-14T11:29:44;2.65;;;1.90;;
46487;SDS011;32202;48.780;9.204;2022-11-14T11:32:11;2.40;;;1.63;;
46487;SDS011;32202;48.780;9.204;2022-11-14T11:34:50;4.63;;;1.90;;
46487;SDS011;32202;48.780;9.204;2022-11-14T11:37:20;4.57;;;2.03;;
46487;SDS011;32202;48.780;9.204;2022-11-14T11:39:53;4.97;;;2.08;;
46487;SDS011;32202;48.780;9.204;2022-11-14T11:42:40;3.22;;;1.90;;
46487;SDS011;32202;48.780;9.204;2022-11-14T11:45:14;2.88;;;1.88;;
46487;SDS011;32202;48.780;9.204;2022-11-14T11:47:43;3.40;;;1.60;;
46487;SDS011;32202;48.780;9.204;2022-11-14T11:50:31;2.92;;;1.67;;
46487;SDS011;32202;48.780;9.204;2022-11-14T11:55:44;2.17;;;1.50;;
46487;SDS011;32202;48.780;9.204;2022-11-14T12:00:51;3.50;;;1.65;;
46487;SDS011;32202;48.780;9.204;2022-11-14T12:03:19;2.47;;;1.40;;
46487;SDS011;32202;48.780;9.204;2022-11-14T12:06:10;2.05;;;1.27;;
46487;SDS011;32202;48.780;9.204;2022-11-14T12:08:41;4.32;;;1.60;;
46487;SDS011;32202;48.780;9.204;2022-11-14T12:11:30;2.10;;;1.38;;
46487;SDS011;32202;48.780;9.204;2022-11-14T12:14:08;1.88;;;1.40;;
46487;SDS011;32202;48.780;9.204;2022-11-14T12:25:30;4.65;;;1.70;;
46487;SDS011;32202;48.780;9.204;2022-11-14T12:30:44;2.55;;;1.60;;
46487;SDS011;32202;48.780;9.204;2022-11-14T12:33:24;2.63;;;1.70;;
46487;SDS011;32202;48.780;9.204;2022-11-14T12:35:55;4.57;;;1.83;;
46487;SDS011;32202;48.780;9.204;2022-11-14T12:38:23;3.40;;;1.50;;
46487;SDS011;32202;48.780;9.204;2022-11-14T12:40:54;2.10;;;1.20;;
46487;SDS011;32202;48.780;9.204;2022-11-14T12:45:59;2.35;;;1.40;;
46487;SDS011;32202;48.780;9.204;2022-11-14T13:07:38;2.10;;;1.27;;
46487;SDS011;32202;48.780;9.204;2022-11-14T13:10:28;3.20;;;1.48;;
46487;SDS011;32202;48.780;9.204;2022-11-14T13:15:55;1.45;;;1.30;;
46487;SDS011;32202;48.780;9.204;2022-11-14T13:27:31;2.20;;;1.40;;
46487;SDS011;32202;48.780;9.204;2022-11-14T13:29:59;3.72;;;2.40;;
46487;SDS011;32202;48.780;9.204;2022-11-14T13:35:19;5.70;;;3.17;;
46487;SDS011;32202;48.780;9.204;2022-11-14T13:51:30;19.13;;;12.02;;
46487;SDS011;32202;48.780;9.204;2022-11-14T13:53:56;81.32;;;50.60;;
46487;SDS011;32202;48.780;9.204;2022-11-14T14:02:11;198.10;;;126.22;;
46487;SDS011;32202;48.780;9.204;2022-11-14T14:05:08;73.10;;;45.75;;
46487;SDS011;32202;48.780;9.204;2022-11-14T14:08:30;81.60;;;50.03;;
46487;SDS011;32202;48.780;9.204;2022-11-14T14:13:24;39.03;;;23.65;;
46487;SDS011;32202;48.780;9.204;2022-11-14T14:18:42;11.40;;;5.55;;
46487;SDS011;32202;48.780;9.204;2022-11-14T14:21:34;84.38;;;48.45;;
46487;SDS011;32202;48.780;9.204;2022-11-14T14:32:35;79.38;;;41.15;;
46487;SDS011;32202;48.780;9.204;2022-11-14T14:35:48;10.10;;;5.43;;
46487;SDS011;32202;48.780;9.204;2022-11-14T14:37:51;3.95;;;2.50;;
46487;SDS011;32202;48.780;9.204;2022-11-14T14:40:37;62.05;;;33.10;;
46487;SDS011;32202;48.780;9.204;2022-11-14T14:43:05;33.67;;;17.80;;
46487;SDS011;32202;48.780;9.204;2022-11-14T14:45:34;5.30;;;3.42;;
46487;SDS011;32202;48.780;9.204;2022-11-14T14:48:11;10.90;;;5.63;;
46487;SDS011;32202;48.780;9.204;2022-11-14T14:50:47;14.37;;;8.60;;
46487;SDS011;32202;48.780;9.204;2022-11-14T14:53:19;187.30;;;95.75;;
46487;SDS011;32202;48.780;9.204;2022-11-14T14:56:34;10.73;;;5.88;;
46487;SDS011;32202;48.780;9.204;2022-11-14T14:58:42;144.30;;;75.60;;
46487;SDS011;32202;48.780;9.204;2022-11-14T15:01:09;13.07;;;6.00;;
46487;SDS011;32202;48.780;9.204;2022-11-14T15:03:43;13.30;;;6.20;;
46487;SDS011;32202;48.780;9.204;2022-11-14T15:06:31;5.45;;;2.22;;
46487;SDS011;32202;48.780;9.204;2022-11-14T15:09:08;87.65;;;43.45;;
46487;SDS011;32202;48.780;9.204;2022-11-14T15:11:42;274.40;;;138.27;;
46487;SDS011;32202;48.780;9.204;2022-11-14T15:14:26;81.50;;;40.47;;
46487;SDS011;32202;48.780;9.204;2022-11-14T15:16:55;4.95;;;2.90;;
46487;SDS011;32202;48.780;9.204;2022-11-14T15:19:23;9.48;;;4.18;;
46487;SDS011;32202;48.780;9.204;2022-11-14T15:24:27;48.95;;;24.25;;
46487;SDS011;32202;48.780;9.204;2022-11-14T15:26:54;14.32;;;6.82;;
46487;SDS011;32202;48.780;9.204;2022-11-14T15:29:20;19.75;;;9.35;;
46487;SDS011;32202;48.780;9.204;2022-11-14T15:31:57;18.85;;;9.35;;
46487;SDS011;32202;48.780;9.204;2022-11-14T15:34:32;12.27;;;5.68;;
46487;SDS011;32202;48.780;9.204;2022-11-14T15:39:41;47.80;;;23.45;;
46487;SDS011;32202;48.780;9.204;2022-11-14T15:42:17;14.55;;;7.55;;
46487;SDS011;32202;48.780;9.204;2022-11-14T15:44:50;13.60;;;6.93;;
46487;SDS011;32202;48.780;9.204;2022-11-14T15:47:23;42.03;;;21.30;;
46487;SDS011;32202;48.780;9.204;2022-11-14T15:49:51;60.80;;;30.15;;
46487;SDS011;32202;48.780;9.204;2022-11-14T15:52:44;15.43;;;7.95;;
46487;SDS011;32202;48.780;9.204;2022-11-14T15:55:17;39.08;;;18.98;;
46487;SDS011;32202;48.780;9.204;2022-11-14T15:57:44;15.32;;;7.68;;
46487;SDS011;32202;48.780;9.204;2022-11-14T16:00:10;25.55;;;12.95;;
46487;SDS011;32202;48.780;9.204;2022-11-14T16:02:42;64.47;;;33.00;;
46487;SDS011;32202;48.780;9.204;2022-11-14T16:05:15;94.72;;;46.97;;
46487;SDS011;32202;48.780;9.204;2022-11-14T16:07:43;6.93;;;3.28;;
46487;SDS011;32202;48.780;9.204;2022-11-14T16:10:17;8.20;;;4.03;;
46487;SDS011;32202;48.780;9.204;2022-11-14T16:12:44;11.48;;;4.45;;
46487;SDS011;32202;48.780;9.204;2022-11-14T16:15:09;10.10;;;5.70;;
46487;SDS011;32202;48.780;9.204;2022-11-14T16:17:36;10.10;;;5.13;;
46487;SDS011;32202;48.780;9.204;2022-11-14T16:20:04;7.75;;;3.60;;
46487;SDS011;32202;48.780;9.204;2022-11-14T16:22:31;9.63;;;3.88;;
46487;SDS011;32202;48.780;9.204;2022-11-14T16:24:59;8.60;;;4.10;;
46487;SDS011;32202;48.780;9.204;2022-11-14T16:27:25;11.32;;;4.50;;
46487;SDS011;32202;48.780;9.204;2022-11-14T16:29:51;5.65;;;3.72;;
46487;SDS011;32202;48.780;9.204;2022-11-14T16:32:17;8.20;;;4.20;;
46487;SDS011;32202;48.780;9.204;2022-11-14T16:34:43;12.35;;;5.03;;
46487;SDS011;32202;48.780;9.204;2022-11-14T16:37:12;6.38;;;4.50;;
46487;SDS011;32202;48.780;9.204;2022-11-14T16:39:38;8.02;;;4.03;;
46487;SDS011;32202;48.780;9.204;2022-11-14T16:42:04;8.38;;;4.15;;
46487;SDS011;32202;48.780;9.204;2022-11-14T16:44:30;9.18;;;4.25;;
46487;SDS011;32202;48.780;9.204;2022-11-14T16:46:56;6.13;;;3.80;;
46487;SDS011;32202;48.780;9.204;2022-11-14T16:49:22;11.00;;;3.88;;
46487;SDS011;32202;48.780;9.204;2022-11-14T16:51:48;7.65;;;4.03;;
46487;SDS011;32202;48.780;9.204;2022-11-14T16:54:18;7.18;;;3.50;;
46487;SDS011;32202;48.780;9.204;2022-11-14T16:56:44;8.07;;;4.40;;